Аэропорт: Казань. Казань

ICAO: UWKD

METAR:
2021-07-28 14:00:00
UWKD 281400Z 31004MPS 280V350 CAVOK 24/02 Q1014 R29/70D NOSIG RMK QFE749/0999
METAR:
2021-07-28 11:00:00
TAF UWKD 281100Z 2812/2912 32005G12MPS CAVOK TX25/2812Z TN12/2901Z BECMG 2816/2818 VRB01MPS FM290600 16005G12MPS 9999 BKN016CB TEMPO 2909/2912 VRB15MPS 3100 -TSRA BKN011CB